Time;durP1;ratioP1;P1;durP2;ratioP2;P2;SDS_P1;SDS_P2;PMS_P1;PMS_P2;Temp;Humidity;BMP_temperature;BMP_pressure;BME280_temperature;BME280_humidity;BME280_pressure;Samples;Min_cycle;Max_cycle;Signal;HPM_P1;HPM_P2
2023/05/14 00:01:50;;;;;;;6.30;4.10;;;12.50;99.90;;;;;;5025634;28;20159;-49
2023/05/14 00:04:18;;;;;;;5.15;4.30;;;12.50;99.90;;;;;;5025507;28;20115;-51
2023/05/14 00:06:44;;;;;;;5.18;4.68;;;12.40;99.90;;;;;;5015262;28;20026;-49
2023/05/14 00:09:10;;;;;;;4.90;4.47;;;12.40;99.90;;;;;;5024830;28;20447;-49
2023/05/14 00:11:36;;;;;;;5.25;4.30;;;12.40;99.90;;;;;;5022042;28;20033;-51
2023/05/14 00:14:01;;;;;;;5.15;4.70;;;12.30;99.90;;;;;;5025703;28;20028;-51
2023/05/14 00:16:27;;;;;;;6.20;4.15;;;12.30;99.90;;;;;;5025669;28;20025;-52
2023/05/14 00:18:53;;;;;;;5.78;4.18;;;12.20;99.90;;;;;;5022731;28;20029;-51
2023/05/14 00:21:18;;;;;;;5.00;4.15;;;12.20;99.90;;;;;;5025695;28;20021;-50
2023/05/14 00:23:44;;;;;;;5.10;4.55;;;12.10;99.90;;;;;;5024474;28;20037;-50
2023/05/14 00:26:09;;;;;;;6.88;4.93;;;12.00;99.90;;;;;;5021573;28;20108;-51
2023/05/14 00:28:35;;;;;;;6.53;5.15;;;11.90;99.90;;;;;;5025217;28;20466;-49
2023/05/14 00:31:00;;;;;;;5.90;5.40;;;11.80;99.90;;;;;;5025665;28;20041;-53
2023/05/14 00:33:26;;;;;;;4.88;4.47;;;11.80;99.90;;;;;;5025913;28;20026;-51
2023/05/14 00:35:51;;;;;;;5.30;4.82;;;11.70;99.90;;;;;;5025811;28;20092;-50
2023/05/14 00:38:18;;;;;;;7.53;4.85;;;11.60;99.90;;;;;;5007046;28;20026;-52
2023/05/14 00:40:49;;;;;;;5.53;4.70;;;11.60;99.90;;;;;;5024333;28;20113;-49
2023/05/14 00:43:17;;;;;;;6.38;5.22;;;11.50;99.90;;;;;;5025514;28;20032;-50
2023/05/14 00:45:43;;;;;;;5.10;4.70;;;11.50;99.90;;;;;;5025832;28;20025;-51
2023/05/14 00:48:09;;;;;;;4.95;4.38;;;11.40;99.90;;;;;;5025090;28;20022;-50
2023/05/14 00:50:34;;;;;;;5.30;4.75;;;11.30;99.90;;;;;;5025216;28;20589;-50
2023/05/14 00:53:00;;;;;;;5.28;4.78;;;11.30;99.90;;;;;;5015589;28;20029;-52
2023/05/14 00:55:28;;;;;;;6.82;5.43;;;11.20;99.90;;;;;;5023921;28;20088;-50
2023/05/14 00:57:57;;;;;;;5.05;4.55;;;11.20;99.90;;;;;;5024257;28;20036;-49
2023/05/14 01:00:23;;;;;;;5.63;5.05;;;11.20;99.90;;;;;;5018794;28;20026;-49
2023/05/14 01:02:48;;;;;;;5.35;4.95;;;11.20;99.90;;;;;;5023054;28;20033;-49
2023/05/14 01:05:14;;;;;;;6.63;4.95;;;11.20;99.90;;;;;;5026614;28;20288;-50
2023/05/14 01:08:08;;;;;;;5.50;5.00;;;11.20;99.90;;;;;;5024996;28;20088;-50
2023/05/14 01:10:51;;;;;;;5.57;5.10;;;11.20;99.90;;;;;;5026233;28;20022;-50
2023/05/14 01:13:32;;;;;;;5.20;4.70;;;11.20;99.90;;;;;;5003254;28;20496;-49
2023/05/14 01:15:59;;;;;;;8.63;5.70;;;11.20;99.90;;;;;;5021146;28;20418;-49
2023/05/14 01:18:26;;;;;;;6.68;5.97;;;11.20;99.90;;;;;;5008811;28;20515;-48
2023/05/14 01:20:53;;;;;;;5.65;5.15;;;11.20;99.90;;;;;;5029042;28;20195;-50
2023/05/14 01:23:19;;;;;;;8.18;5.13;;;11.20;99.90;;;;;;5028839;28;20026;-50
2023/05/14 01:25:44;;;;;;;6.07;5.25;;;11.20;99.90;;;;;;5028529;28;20022;-50
2023/05/14 01:28:17;;;;;;;5.10;4.68;;;11.20;99.90;;;;;;5024311;28;20109;-50
2023/05/14 01:30:57;;;;;;;5.75;4.88;;;11.10;99.90;;;;;;5026036;28;20033;-52
2023/05/14 01:33:25;;;;;;;5.10;4.60;;;11.10;99.90;;;;;;5028827;28;20549;-49
2023/05/14 01:35:53;;;;;;;5.85;5.35;;;11.00;99.90;;;;;;5028468;28;20029;-49
2023/05/14 01:38:20;;;;;;;9.35;5.47;;;11.10;99.90;;;;;;5028413;28;20555;-50
2023/05/14 01:40:46;;;;;;;5.80;4.93;;;11.00;99.90;;;;;;5028191;28;20471;-51
2023/05/14 01:43:13;;;;;;;5.80;5.30;;;11.00;99.90;;;;;;5017498;28;20017;-51
2023/05/14 01:45:39;;;;;;;5.70;5.22;;;11.00;99.90;;;;;;5027852;28;20029;-50
2023/05/14 01:48:05;;;;;;;5.78;5.00;;;11.00;99.90;;;;;;5027945;28;20083;-50
2023/05/14 01:50:30;;;;;;;5.93;5.32;;;11.00;99.90;;;;;;5028012;28;20056;-50
2023/05/14 01:52:56;;;;;;;5.82;5.15;;;10.90;99.90;;;;;;5022768;28;20028;-50
2023/05/14 01:55:23;;;;;;;5.72;5.22;;;10.90;99.90;;;;;;5027289;28;20017;-51
2023/05/14 01:57:52;;;;;;;5.50;4.82;;;10.90;99.90;;;;;;5027821;28;20491;-51
2023/05/14 02:00:18;;;;;;;5.85;5.13;;;10.80;99.90;;;;;;5050648;23;20494;-59
2023/05/14 02:02:44;;;;;;;5.47;4.97;;;10.80;99.90;;;;;;5047645;28;20029;-58
2023/05/14 02:05:11;;;;;;;6.35;5.57;;;10.60;99.90;;;;;;5048449;28;20021;-59
2023/05/14 02:07:36;;;;;;;6.22;4.93;;;10.60;99.90;;;;;;5045560;28;20494;-60
2023/05/14 02:10:02;;;;;;;7.50;5.63;;;10.50;99.90;;;;;;5034857;28;20025;-59
2023/05/14 02:12:28;;;;;;;6.85;6.00;;;10.40;99.90;;;;;;5028230;28;20090;-58
2023/05/14 02:14:54;;;;;;;5.03;4.53;;;10.40;99.90;;;;;;5028010;28;20024;-59
2023/05/14 02:17:19;;;;;;;8.30;5.20;;;10.30;99.90;;;;;;5027281;28;20082;-59
2023/05/14 02:19:45;;;;;;;5.05;4.57;;;10.30;99.90;;;;;;5028125;28;20476;-59
2023/05/14 02:22:12;;;;;;;7.05;6.00;;;10.30;99.90;;;;;;5028213;28;20028;-57
2023/05/14 02:24:37;;;;;;;5.93;5.43;;;10.20;99.90;;;;;;5027616;28;20037;-59
2023/05/14 02:27:05;;;;;;;5.97;5.43;;;10.20;99.90;;;;;;5027596;28;20225;-59
2023/05/14 02:29:30;;;;;;;5.88;4.97;;;10.10;99.90;;;;;;5027489;28;20104;-58
2023/05/14 02:31:56;;;;;;;9.15;5.05;;;10.10;99.90;;;;;;5026525;28;20501;-59
2023/05/14 02:34:22;;;;;;;6.05;5.55;;;10.10;99.90;;;;;;5030309;28;20034;-59
2023/05/14 02:36:47;;;;;;;5.93;5.32;;;10.10;99.90;;;;;;5029807;28;20036;-59
2023/05/14 02:39:13;;;;;;;9.18;5.40;;;10.00;99.90;;;;;;5033424;28;20037;-59
2023/05/14 02:41:39;;;;;;;5.57;5.10;;;10.00;99.90;;;;;;5034289;28;20025;-59
2023/05/14 02:44:04;;;;;;;5.75;5.10;;;9.90;99.90;;;;;;5020013;28;20100;-59
2023/05/14 02:46:30;;;;;;;5.95;5.35;;;9.90;99.90;;;;;;5027246;28;20064;-59
2023/05/14 02:48:56;;;;;;;6.03;5.43;;;9.90;99.90;;;;;;5028625;28;20021;-57
2023/05/14 02:51:22;;;;;;;6.72;5.78;;;9.90;99.90;;;;;;5032190;28;20034;-59
2023/05/14 02:53:48;;;;;;;6.72;5.40;;;9.90;99.90;;;;;;5027286;28;20108;-59
2023/05/14 02:56:13;;;;;;;5.82;5.22;;;9.80;99.90;;;;;;5027386;28;20526;-59
2023/05/14 02:58:39;;;;;;;7.28;5.70;;;9.80;99.90;;;;;;5026928;28;20026;-57
2023/05/14 03:01:04;;;;;;;5.47;4.97;;;9.70;99.90;;;;;;5026120;28;20030;-59
2023/05/14 03:03:30;;;;;;;5.70;5.18;;;9.70;99.90;;;;;;5027472;28;20383;-59
2023/05/14 03:05:55;;;;;;;6.15;5.55;;;9.70;99.90;;;;;;5027052;28;20648;-59
2023/05/14 03:08:21;;;;;;;6.10;5.50;;;9.70;99.90;;;;;;5028104;28;20029;-59
2023/05/14 03:10:46;;;;;;;6.45;5.85;;;9.70;99.90;;;;;;5022916;28;20045;-59
2023/05/14 03:13:16;;;;;;;5.80;5.15;;;9.70;99.90;;;;;;5027013;28;20029;-58
2023/05/14 03:15:42;;;;;;;6.10;5.50;;;9.60;99.90;;;;;;5025074;28;20092;-59
2023/05/14 03:18:08;;;;;;;6.05;5.43;;;9.50;99.90;;;;;;5026210;28;20511;-59
2023/05/14 03:20:33;;;;;;;7.18;5.53;;;9.50;99.90;;;;;;5026950;28;20351;-59
2023/05/14 03:22:59;;;;;;;6.43;5.43;;;9.50;99.90;;;;;;5033869;28;20484;-59
2023/05/14 03:25:24;;;;;;;6.97;5.63;;;9.50;99.90;;;;;;5030074;28;20066;-58
2023/05/14 03:27:50;;;;;;;5.38;4.93;;;9.40;99.90;;;;;;5025494;28;20047;-59
2023/05/14 03:30:15;;;;;;;5.60;5.10;;;9.40;99.90;;;;;;5025353;28;20036;-59
2023/05/14 03:32:41;;;;;;;6.15;5.55;;;9.40;99.90;;;;;;5026302;28;20061;-59
2023/05/14 03:35:07;;;;;;;6.55;5.72;;;9.40;99.90;;;;;;5008055;28;20025;-57
2023/05/14 03:37:33;;;;;;;6.40;5.80;;;9.40;99.90;;;;;;5025998;28;20029;-58
2023/05/14 03:39:58;;;;;;;6.53;5.93;;;9.40;99.90;;;;;;5025786;28;20048;-59
2023/05/14 03:42:25;;;;;;;6.05;5.53;;;9.40;99.90;;;;;;5027360;28;20395;-58
2023/05/14 03:44:51;;;;;;;6.22;5.57;;;9.30;99.90;;;;;;5025586;28;20377;-59
2023/05/14 03:47:17;;;;;;;6.15;5.25;;;9.30;99.90;;;;;;5025446;28;20059;-59
2023/05/14 03:49:42;;;;;;;6.80;6.20;;;9.40;99.90;;;;;;5026264;28;20168;-59
2023/05/14 03:52:08;;;;;;;5.70;5.20;;;9.40;99.90;;;;;;5025535;28;20021;-59
2023/05/14 03:54:33;;;;;;;8.18;5.43;;;9.50;99.90;;;;;;5025881;28;20068;-59
2023/05/14 03:56:59;;;;;;;5.97;5.45;;;9.50;99.90;;;;;;5026232;28;20026;-58
2023/05/14 03:59:25;;;;;;;5.43;4.95;;;9.50;99.90;;;;;;5022950;28;20526;-58
2023/05/14 04:01:50;;;;;;;8.50;5.40;;;9.50;99.90;;;;;;5025336;28;20128;-58
2023/05/14 04:04:16;;;;;;;6.45;5.32;;;9.60;99.90;;;;;;5025627;28;20284;-59
2023/05/14 04:06:41;;;;;;;6.97;5.53;;;9.60;99.90;;;;;;5025592;28;20034;-58
2023/05/14 04:09:07;;;;;;;6.53;5.45;;;9.60;99.90;;;;;;5025286;28;20102;-59
2023/05/14 04:11:32;;;;;;;6.03;5.43;;;9.60;99.90;;;;;;5027393;28;20128;-59
2023/05/14 04:13:58;;;;;;;6.40;5.80;;;9.60;99.90;;;;;;5029317;28;20064;-59
2023/05/14 04:16:23;;;;;;;6.57;5.97;;;9.70;99.90;;;;;;5025854;28;20200;-59
2023/05/14 04:18:49;;;;;;;6.30;5.70;;;9.70;99.90;;;;;;5026520;28;20036;-59
2023/05/14 04:21:14;;;;;;;6.50;5.72;;;9.80;99.90;;;;;;5025581;28;20029;-57
2023/05/14 04:23:40;;;;;;;6.53;5.93;;;9.80;99.90;;;;;;5025810;28;20369;-58
2023/05/14 04:26:05;;;;;;;6.10;5.47;;;9.80;99.90;;;;;;5025287;28;20025;-58
2023/05/14 04:28:31;;;;;;;6.72;6.07;;;9.80;99.90;;;;;;5025378;28;20078;-59
2023/05/14 04:30:57;;;;;;;7.38;6.40;;;9.90;99.90;;;;;;5024940;28;20034;-58
2023/05/14 04:33:22;;;;;;;6.00;5.43;;;9.90;99.90;;;;;;5025216;28;20037;-59
2023/05/14 04:35:48;;;;;;;7.22;6.15;;;9.90;99.90;;;;;;5025597;28;20057;-59
2023/05/14 04:38:13;;;;;;;5.85;5.30;;;9.90;99.90;;;;;;5030353;28;20500;-59
2023/05/14 04:40:40;;;;;;;6.15;5.55;;;10.00;99.90;;;;;;5028492;28;20022;-58
2023/05/14 04:43:06;;;;;;;6.63;5.93;;;9.90;99.90;;;;;;5029457;28;20017;-58
2023/05/14 04:45:32;;;;;;;6.38;5.78;;;10.00;99.90;;;;;;5037444;28;20029;-58
2023/05/14 04:47:58;;;;;;;6.50;5.65;;;10.00;99.90;;;;;;5011313;28;20030;-59
2023/05/14 04:50:23;;;;;;;8.27;5.93;;;10.10;99.90;;;;;;5029382;28;20040;-59
2023/05/14 04:52:49;;;;;;;6.35;5.55;;;10.10;99.90;;;;;;5028539;28;20030;-58
2023/05/14 04:55:15;;;;;;;8.20;5.90;;;10.20;99.90;;;;;;5028709;28;20029;-58
2023/05/14 04:57:41;;;;;;;5.90;5.43;;;10.20;99.90;;;;;;5029290;28;20091;-59
2023/05/14 05:00:08;;;;;;;5.85;5.35;;;10.30;99.90;;;;;;5028181;28;20033;-59
2023/05/14 05:02:35;;;;;;;7.28;5.78;;;10.30;99.90;;;;;;5025035;28;20021;-59
2023/05/14 05:05:02;;;;;;;6.07;5.57;;;10.30;99.90;;;;;;5031470;28;20021;-58
2023/05/14 05:07:28;;;;;;;5.93;5.25;;;10.40;99.90;;;;;;5038994;28;20029;-59
2023/05/14 05:09:54;;;;;;;10.18;5.75;;;10.50;99.90;;;;;;5030623;28;20087;-58
2023/05/14 05:12:20;;;;;;;5.72;5.15;;;10.60;99.90;;;;;;5028878;28;20036;-59
2023/05/14 05:14:45;;;;;;;7.45;5.65;;;10.60;99.90;;;;;;5028531;28;20459;-59
2023/05/14 05:17:11;;;;;;;6.72;5.97;;;10.70;99.90;;;;;;5011561;28;20063;-58
2023/05/14 05:19:37;;;;;;;6.65;5.95;;;10.80;99.90;;;;;;5028235;28;20141;-59
2023/05/14 05:22:02;;;;;;;6.68;6.03;;;10.90;99.90;;;;;;5029630;28;20029;-59
2023/05/14 05:24:28;;;;;;;8.48;5.43;;;10.90;99.90;;;;;;5029489;28;20465;-58
2023/05/14 05:26:54;;;;;;;6.70;6.10;;;11.00;99.90;;;;;;5028237;28;20507;-59
2023/05/14 05:29:20;;;;;;;6.25;5.70;;;11.10;99.90;;;;;;5026914;28;20022;-58
2023/05/14 05:31:46;;;;;;;5.80;5.30;;;11.20;99.90;;;;;;5028043;28;20033;-59
2023/05/14 05:34:12;;;;;;;7.63;6.85;;;11.20;99.90;;;;;;5028669;28;20075;-58
2023/05/14 05:36:37;;;;;;;9.98;6.32;;;11.30;99.90;;;;;;5028288;28;20456;-58
2023/05/14 05:39:03;;;;;;;7.90;5.40;;;11.40;99.90;;;;;;5028697;28;20035;-59
2023/05/14 05:41:29;;;;;;;6.68;5.57;;;11.50;99.90;;;;;;5028312;28;20049;-59
2023/05/14 05:43:54;;;;;;;6.30;5.40;;;11.60;99.90;;;;;;5028339;28;20713;-59
2023/05/14 05:46:20;;;;;;;5.18;4.78;;;11.70;99.90;;;;;;5028034;28;20033;-57
2023/05/14 05:48:45;;;;;;;6.40;5.65;;;11.80;99.90;;;;;;5028061;28;20028;-59
2023/05/14 05:51:11;;;;;;;5.60;5.05;;;11.90;99.90;;;;;;5027373;28;20025;-59
2023/05/14 05:53:37;;;;;;;5.40;5.00;;;12.10;99.90;;;;;;5028027;28;20052;-59
2023/05/14 05:56:02;;;;;;;5.15;4.68;;;12.20;99.90;;;;;;5010285;28;20026;-59
2023/05/14 05:58:28;;;;;;;7.50;5.25;;;12.40;99.90;;;;;;5027556;28;20025;-58
2023/05/14 06:00:56;;;;;;;9.65;5.95;;;12.50;99.90;;;;;;5027759;28;20500;-58
2023/05/14 06:03:22;;;;;;;6.05;5.47;;;12.70;99.90;;;;;;5027863;28;20029;-58
2023/05/14 06:05:47;;;;;;;6.25;4.82;;;12.90;99.90;;;;;;5027939;28;20483;-58
2023/05/14 06:08:13;;;;;;;6.35;4.85;;;13.20;99.90;;;;;;5031215;28;20061;-56
2023/05/14 06:10:38;;;;;;;7.57;4.95;;;13.30;99.90;;;;;;5027927;28;20114;-58
2023/05/14 06:13:04;;;;;;;4.85;4.45;;;13.60;99.90;;;;;;5027029;28;20135;-58
2023/05/14 06:15:29;;;;;;;7.55;5.03;;;13.80;99.90;;;;;;5027488;28;20175;-57
2023/05/14 06:17:55;;;;;;;4.72;4.22;;;14.10;99.90;;;;;;5028912;28;20033;-57
2023/05/14 06:20:20;;;;;;;5.95;5.38;;;14.30;99.90;;;;;;5026610;28;20029;-57
2023/05/14 06:22:46;;;;;;;4.68;4.28;;;14.50;99.90;;;;;;5029196;28;20030;-59
2023/05/14 06:25:12;;;;;;;5.68;4.40;;;14.80;99.90;;;;;;5031341;28;20110;-58
2023/05/14 06:27:37;;;;;;;5.13;4.72;;;15.00;99.90;;;;;;5032002;28;20040;-58
2023/05/14 06:30:03;;;;;;;4.68;4.22;;;15.20;99.90;;;;;;5026577;28;20028;-58
2023/05/14 06:32:29;;;;;;;4.80;4.40;;;15.40;99.90;;;;;;5027331;28;20172;-59
2023/05/14 06:34:54;;;;;;;4.30;3.90;;;15.70;99.90;;;;;;5032321;28;20024;-58
2023/05/14 06:37:20;;;;;;;3.97;3.65;;;15.90;99.90;;;;;;5026310;28;20500;-57
2023/05/14 06:39:48;;;;;;;6.20;3.80;;;16.10;99.90;;;;;;5027195;28;20021;-58
2023/05/14 06:42:17;;;;;;;4.05;3.75;;;16.40;99.90;;;;;;5009261;28;20084;-56
2023/05/14 06:44:44;;;;;;;3.88;3.58;;;16.60;99.90;;;;;;5026974;28;20469;-58
2023/05/14 06:47:09;;;;;;;3.90;3.60;;;16.80;99.90;;;;;;5026790;28;20040;-56
2023/05/14 06:49:35;;;;;;;4.00;3.60;;;17.00;99.90;;;;;;5026921;28;20025;-58
2023/05/14 06:52:01;;;;;;;4.47;4.07;;;17.10;99.90;;;;;;5026306;28;20250;-58
2023/05/14 06:54:26;;;;;;;5.05;4.38;;;17.30;99.90;;;;;;5026701;28;20095;-58
2023/05/14 06:56:52;;;;;;;4.40;3.92;;;17.40;99.90;;;;;;5026386;28;20480;-58
2023/05/14 06:59:18;;;;;;;4.15;3.78;;;17.50;99.90;;;;;;5025810;28;20034;-56
2023/05/14 07:01:44;;;;;;;3.75;3.45;;;17.70;99.90;;;;;;5025592;28;20044;-58
2023/05/14 07:04:09;;;;;;;5.93;4.00;;;17.90;99.90;;;;;;5026210;28;20116;-57
2023/05/14 07:06:35;;;;;;;3.95;3.55;;;18.10;99.90;;;;;;5026252;28;20029;-56
2023/05/14 07:09:01;;;;;;;3.60;3.30;;;18.30;99.90;;;;;;5030971;28;20041;-59
2023/05/14 07:11:27;;;;;;;4.22;3.33;;;18.40;99.90;;;;;;5008949;28;20079;-58
2023/05/14 07:13:52;;;;;;;3.95;3.42;;;18.50;99.90;;;;;;5028525;28;20029;-56
2023/05/14 07:16:18;;;;;;;4.18;3.55;;;18.70;99.90;;;;;;5027561;28;20422;-57
2023/05/14 07:18:44;;;;;;;3.80;3.50;;;18.80;99.90;;;;;;5034026;28;20039;-58
2023/05/14 07:21:10;;;;;;;4.13;3.67;;;18.90;99.90;;;;;;5034187;28;20025;-58
2023/05/14 07:23:37;;;;;;;3.95;3.65;;;19.10;99.90;;;;;;5026119;28;20038;-58
2023/05/14 07:26:03;;;;;;;3.80;3.50;;;19.30;99.90;;;;;;5026225;28;20442;-58
2023/05/14 07:28:29;;;;;;;4.05;3.65;;;19.40;99.90;;;;;;5024939;28;20025;-56
2023/05/14 07:30:55;;;;;;;3.47;3.17;;;19.60;99.90;;;;;;5025681;28;20037;-55
2023/05/14 07:33:21;;;;;;;3.15;2.95;;;19.70;97.40;;;;;;5026192;28;20084;-58
2023/05/14 07:35:46;;;;;;;3.67;3.33;;;19.80;97.70;;;;;;5025602;28;20053;-59
2023/05/14 07:38:12;;;;;;;3.63;3.22;;;19.90;97.10;;;;;;5025542;28;20017;-59
2023/05/14 07:40:37;;;;;;;3.78;3.03;;;20.20;97.20;;;;;;5026241;28;20021;-59
2023/05/14 07:43:04;;;;;;;3.22;2.92;;;20.50;94.30;;;;;;5025720;28;20341;-59
2023/05/14 07:45:29;;;;;;;3.72;3.35;;;20.60;93.70;;;;;;5026160;28;20540;-59
2023/05/14 07:47:55;;;;;;;3.45;2.90;;;20.80;93.40;;;;;;5025818;28;20104;-58
2023/05/14 07:50:21;;;;;;;3.00;2.80;;;20.80;92.80;;;;;;5025359;28;20395;-58
2023/05/14 07:52:47;;;;;;;4.13;3.65;;;20.80;93.40;;;;;;5025789;28;20061;-56
2023/05/14 07:55:12;;;;;;;2.65;2.45;;;20.90;92.30;;;;;;5025333;28;20148;-58
2023/05/14 07:57:38;;;;;;;3.38;3.17;;;21.10;91.40;;;;;;5025580;28;20543;-58
2023/05/14 08:00:11;;;;;;;3.10;2.80;;;21.20;91.10;;;;;;5024927;28;20029;-59
2023/05/14 08:02:36;;;;;;;3.45;3.15;;;21.30;92.10;;;;;;5026044;28;20225;-59
2023/05/14 08:05:02;;;;;;;4.82;3.22;;;21.30;89.60;;;;;;5025446;28;20480;-57
2023/05/14 08:07:28;;;;;;;4.57;3.20;;;21.50;90.10;;;;;;5025368;28;20017;-58
2023/05/14 08:09:54;;;;;;;3.42;2.90;;;21.60;90.00;;;;;;5033754;28;20112;-59
2023/05/14 08:12:20;;;;;;;4.03;2.88;;;21.60;86.90;;;;;;5025016;28;20120;-59
2023/05/14 08:14:46;;;;;;;4.97;3.15;;;21.70;87.10;;;;;;5007518;28;20043;-60
2023/05/14 08:17:12;;;;;;;4.55;3.17;;;21.80;86.70;;;;;;5024691;28;20072;-58
2023/05/14 08:19:37;;;;;;;3.58;2.70;;;21.90;85.70;;;;;;5025318;28;20109;-59
2023/05/14 08:22:04;;;;;;;3.30;2.40;;;22.00;84.70;;;;;;5025700;28;20064;-59
2023/05/14 08:24:29;;;;;;;3.35;2.60;;;22.00;83.00;;;;;;5025359;28;20064;-59
2023/05/14 08:26:55;;;;;;;4.18;2.58;;;22.00;81.50;;;;;;5024970;28;20049;-60
2023/05/14 08:29:21;;;;;;;3.63;2.63;;;22.10;80.90;;;;;;5007403;28;20021;-59
2023/05/14 08:31:47;;;;;;;3.33;2.60;;;22.00;79.10;;;;;;5007040;28;20025;-59
2023/05/14 08:34:13;;;;;;;2.55;2.20;;;22.10;79.70;;;;;;5025340;28;20021;-59
2023/05/14 08:36:38;;;;;;;5.28;2.78;;;22.30;81.00;;;;;;5007176;28;20510;-59
2023/05/14 08:39:06;;;;;;;3.72;3.35;;;22.50;78.50;;;;;;5025504;28;20052;-59
2023/05/14 08:41:32;;;;;;;5.82;3.30;;;22.70;80.10;;;;;;5024989;28;20017;-59
2023/05/14 08:44:13;;;;;;;2.58;2.38;;;22.90;79.30;;;;;;5025115;28;20031;-58
2023/05/14 08:46:39;;;;;;;2.72;2.50;;;23.10;80.60;;;;;;5002710;28;20364;-59
2023/05/14 08:49:27;;;;;;;2.80;2.33;;;23.40;80.60;;;;;;5025054;28;20033;-59
2023/05/14 08:51:53;;;;;;;4.57;2.70;;;23.60;77.40;;;;;;5007259;28;20032;-58
2023/05/14 08:54:22;;;;;;;2.30;2.13;;;23.60;75.00;;;;;;5026003;28;20399;-59
2023/05/14 08:56:50;;;;;;;2.85;2.65;;;23.60;76.30;;;;;;5027871;28;20049;-58
2023/05/14 08:59:15;;;;;;;4.03;2.70;;;23.80;75.80;;;;;;5034513;28;20030;-59
2023/05/14 09:01:50;;;;;;;2.78;2.47;;;23.90;77.00;;;;;;5030364;28;20025;-59
2023/05/14 09:04:20;;;;;;;3.60;2.95;;;24.00;77.60;;;;;;5031646;28;20394;-60
2023/05/14 09:06:48;;;;;;;4.25;2.80;;;24.00;73.80;;;;;;5027666;28;20539;-59
2023/05/14 09:09:14;;;;;;;5.68;2.22;;;23.90;75.00;;;;;;5024708;28;20045;-56
2023/05/14 09:11:41;;;;;;;2.53;2.10;;;23.70;72.10;;;;;;5006959;28;20029;-56
2023/05/14 09:14:06;;;;;;;5.20;2.78;;;23.80;72.70;;;;;;5024606;28;20124;-59
2023/05/14 09:16:33;;;;;;;2.83;2.53;;;23.80;73.40;;;;;;5017190;28;20104;-60
2023/05/14 09:18:58;;;;;;;2.83;2.58;;;24.00;74.50;;;;;;5010497;28;20041;-60
2023/05/14 09:21:24;;;;;;;3.67;2.20;;;24.00;72.70;;;;;;5024617;28;20018;-60
2023/05/14 09:23:55;;;;;;;2.63;2.42;;;24.10;72.70;;;;;;5029889;28;20075;-58
2023/05/14 09:26:23;;;;;;;2.88;2.30;;;24.00;71.40;;;;;;5015773;28;20431;-58
2023/05/14 09:28:53;;;;;;;6.35;2.35;;;24.00;71.50;;;;;;5028089;28;20576;-59
2023/05/14 09:31:19;;;;;;;3.63;2.42;;;24.00;69.60;;;;;;5027817;28;20033;-60
2023/05/14 09:33:52;;;;;;;3.00;2.47;;;24.00;68.60;;;;;;5027501;28;20480;-59
2023/05/14 09:36:18;;;;;;;3.38;2.42;;;24.10;69.30;;;;;;5027786;28;20161;-60
2023/05/14 09:38:43;;;;;;;2.75;2.53;;;24.00;68.40;;;;;;5032342;28;20051;-59
2023/05/14 09:41:09;;;;;;;3.97;2.55;;;23.80;68.20;;;;;;5030358;28;20036;-59
2023/05/14 09:43:35;;;;;;;2.95;2.60;;;23.70;68.00;;;;;;5028125;28;20053;-59
2023/05/14 09:46:00;;;;;;;5.40;2.30;;;23.60;67.80;;;;;;5027656;28;20057;-61
2023/05/14 09:48:26;;;;;;;3.78;2.65;;;23.30;67.90;;;;;;5028306;28;20072;-59
2023/05/14 09:50:51;;;;;;;2.88;2.20;;;23.00;67.90;;;;;;5033877;28;20029;-59
2023/05/14 09:53:17;;;;;;;2.67;2.42;;;22.90;69.80;;;;;;5026982;28;20391;-59
2023/05/14 09:55:44;;;;;;;3.05;2.75;;;22.90;69.70;;;;;;5026856;28;20056;-60
2023/05/14 09:58:10;;;;;;;5.03;3.17;;;23.10;70.50;;;;;;5027274;28;20112;-59
2023/05/14 10:00:36;;;;;;;4.50;2.35;;;23.30;69.40;;;;;;5027116;28;20551;-59
2023/05/14 10:03:06;;;;;;;4.93;2.70;;;23.30;69.20;;;;;;5030105;28;20182;-59
2023/05/14 10:05:36;;;;;;;2.75;2.35;;;23.40;70.10;;;;;;5021219;28;20023;-58
2023/05/14 10:08:29;;;;;;;4.78;2.17;;;23.40;68.00;;;;;;5015214;28;20026;-58
2023/05/14 10:10:57;;;;;;;2.35;2.15;;;23.50;67.10;;;;;;5022812;28;20033;-58
2023/05/14 10:13:31;;;;;;;2.50;2.28;;;23.20;66.00;;;;;;5027174;28;20108;-59
2023/05/14 10:16:06;;;;;;;2.05;1.95;;;23.00;66.60;;;;;;5028287;28;20080;-59
2023/05/14 10:18:39;;;;;;;3.55;2.65;;;22.80;67.60;;;;;;5026878;28;20029;-60
2023/05/14 10:21:06;;;;;;;3.72;2.67;;;22.60;67.10;;;;;;5027279;28;20028;-56
2023/05/14 10:23:33;;;;;;;2.63;2.42;;;22.40;68.00;;;;;;5026435;28;20447;-59
2023/05/14 10:25:59;;;;;;;3.05;2.25;;;22.50;68.40;;;;;;5027152;28;20026;-58
2023/05/14 10:28:25;;;;;;;3.47;2.55;;;22.60;68.70;;;;;;5025225;28;20171;-59
2023/05/14 10:30:51;;;;;;;3.80;2.40;;;22.90;68.90;;;;;;5026047;28;20033;-59
2023/05/14 10:33:17;;;;;;;3.95;2.30;;;23.10;70.10;;;;;;5026074;28;20427;-58
2023/05/14 10:36:00;;;;;;;2.95;2.58;;;23.30;66.50;;;;;;5026466;28;20161;-60
2023/05/14 10:38:33;;;;;;;3.30;2.65;;;23.20;68.10;;;;;;5030559;28;20444;-59
2023/05/14 10:41:03;;;;;;;3.08;2.33;;;23.00;67.20;;;;;;5025344;28;20128;-59
2023/05/14 10:43:34;;;;;;;4.05;2.17;;;23.00;65.90;;;;;;5026704;28;20040;-59
2023/05/14 10:46:00;;;;;;;3.00;2.00;;;22.80;65.50;;;;;;5026583;28;20108;-58
2023/05/14 10:48:26;;;;;;;2.28;2.08;;;22.70;65.40;;;;;;5024913;28;20112;-59
2023/05/14 10:50:52;;;;;;;2.38;2.17;;;22.60;63.50;;;;;;5026634;28;20357;-59
2023/05/14 10:53:18;;;;;;;2.47;2.00;;;22.50;67.10;;;;;;5027378;28;20037;-58
2023/05/14 10:55:44;;;;;;;2.58;2.30;;;22.50;65.60;;;;;;5026566;28;20404;-59
2023/05/14 10:58:11;;;;;;;2.30;2.08;;;22.40;64.40;;;;;;5026190;28;20025;-59
2023/05/14 11:00:37;;;;;;;2.92;2.30;;;22.50;66.70;;;;;;5025737;28;20099;-59
2023/05/14 11:03:05;;;;;;;3.60;2.00;;;22.60;66.20;;;;;;5026186;28;20109;-57
2023/05/14 11:05:31;;;;;;;2.85;2.35;;;22.70;66.40;;;;;;5010488;28;20022;-60
2023/05/14 11:07:57;;;;;;;4.18;2.00;;;22.80;64.30;;;;;;5015915;28;20037;-59
2023/05/14 11:10:28;;;;;;;4.22;2.40;;;23.00;64.70;;;;;;5027204;28;20396;-61
2023/05/14 11:12:55;;;;;;;2.97;2.45;;;23.00;63.60;;;;;;5028465;28;20045;-58
2023/05/14 11:15:23;;;;;;;3.22;2.40;;;23.00;63.80;;;;;;5025942;28;20044;-59
2023/05/14 11:17:50;;;;;;;2.72;2.20;;;22.90;64.30;;;;;;5025860;28;20017;-58
2023/05/14 11:20:16;;;;;;;3.30;2.20;;;22.90;63.80;;;;;;5026293;28;20017;-57
2023/05/14 11:22:44;;;;;;;3.67;2.30;;;22.80;62.70;;;;;;5026417;28;20024;-59
2023/05/14 11:25:13;;;;;;;3.35;1.98;;;22.70;63.10;;;;;;5025552;28;20029;-59
2023/05/14 11:27:39;;;;;;;4.85;2.35;;;22.60;64.60;;;;;;5025607;28;20024;-59
2023/05/14 11:30:15;;;;;;;2.70;2.08;;;22.50;63.30;;;;;;5025422;28;20400;-60
2023/05/14 11:32:43;;;;;;;3.67;1.95;;;22.40;64.90;;;;;;5019243;28;20079;-59
2023/05/14 11:35:08;;;;;;;2.95;2.47;;;22.40;66.20;;;;;;5025718;28;20018;-60
2023/05/14 11:37:34;;;;;;;2.35;2.10;;;22.30;64.50;;;;;;5025329;28;20033;-61
2023/05/14 11:40:00;;;;;;;2.80;2.20;;;22.30;65.30;;;;;;5025642;28;20025;-60
2023/05/14 11:42:26;;;;;;;5.07;2.75;;;22.30;65.40;;;;;;5025789;28;20028;-59
2023/05/14 11:44:54;;;;;;;3.90;2.42;;;22.30;65.90;;;;;;5025658;28;20407;-60
2023/05/14 11:47:21;;;;;;;2.50;2.30;;;22.30;65.50;;;;;;5024720;28;20043;-61
2023/05/14 11:49:48;;;;;;;3.20;2.15;;;22.40;67.30;;;;;;5025726;28;20237;-60
2023/05/14 11:52:17;;;;;;;7.70;2.53;;;22.30;66.50;;;;;;5022635;28;20021;-60
2023/05/14 11:54:44;;;;;;;4.35;2.40;;;22.40;65.70;;;;;;5030105;28;20534;-60
2023/05/14 11:57:22;;;;;;;4.78;2.85;;;22.40;64.90;;;;;;5032022;28;20633;-60
2023/05/14 11:59:54;;;;;;;2.70;2.50;;;22.30;65.00;;;;;;5019798;28;20207;-58
2023/05/14 12:02:21;;;;;;;3.00;2.50;;;22.30;67.10;;;;;;5006623;28;20087;-59
2023/05/14 12:04:50;;;;;;;2.72;2.40;;;22.30;65.50;;;;;;5031238;28;20526;-59
2023/05/14 12:07:16;;;;;;;5.15;2.65;;;22.30;67.60;;;;;;5026090;28;20037;-59
2023/05/14 12:09:50;;;;;;;9.80;2.65;;;22.30;67.30;;;;;;5024936;28;20041;-60
2023/05/14 12:12:20;;;;;;;3.38;2.85;;;22.30;65.80;;;;;;5032093;28;20447;-59
2023/05/14 12:14:47;;;;;;;5.50;2.08;;;22.30;67.60;;;;;;5027899;28;20022;-59
2023/05/14 12:17:21;;;;;;;3.53;2.92;;;22.30;69.70;;;;;;5025135;28;20060;-59
2023/05/14 12:19:51;;;;;;;4.97;2.40;;;22.40;69.60;;;;;;5025611;28;20028;-59
2023/05/14 12:22:18;;;;;;;4.60;2.63;;;22.60;70.80;;;;;;5008814;28;20056;-58
2023/05/14 12:24:56;;;;;;;3.05;2.70;;;22.80;69.30;;;;;;5024888;28;20018;-58
2023/05/14 12:27:26;;;;;;;2.75;2.35;;;23.10;68.40;;;;;;5025614;28;20055;-59
2023/05/14 12:29:59;;;;;;;2.83;2.63;;;23.20;69.00;;;;;;5024891;28;20105;-59
2023/05/14 12:32:25;;;;;;;3.15;2.53;;;23.20;67.90;;;;;;5006413;28;20501;-60
2023/05/14 12:34:51;;;;;;;3.65;2.70;;;23.30;67.50;;;;;;5025413;28;20055;-58
2023/05/14 12:37:17;;;;;;;2.58;2.38;;;23.40;68.50;;;;;;5009298;28;20427;-59
2023/05/14 12:39:43;;;;;;;3.90;2.88;;;23.60;69.70;;;;;;5025178;28;20097;-58
2023/05/14 12:42:08;;;;;;;2.85;2.65;;;23.70;64.80;;;;;;5027110;28;20104;-59
2023/05/14 12:44:34;;;;;;;3.05;2.75;;;23.90;67.00;;;;;;5026206;28;20029;-59
2023/05/14 12:46:59;;;;;;;4.38;2.65;;;24.10;64.50;;;;;;5025155;28;20026;-58